createdAt,value
2018-12-22T00:00:03.771Z,36.67
2018-12-22T00:02:32.072Z,32.53
2018-12-22T00:05:00.581Z,34.93
2018-12-22T00:07:28.854Z,39.50
2018-12-22T00:09:57.143Z,32.57
2018-12-22T00:12:27.056Z,34.37
2018-12-22T00:14:55.324Z,33.67
2018-12-22T00:17:23.644Z,38.93
2018-12-22T00:19:52.089Z,29.57
2018-12-22T00:22:20.403Z,34.13
2018-12-22T00:24:48.692Z,29.93
2018-12-22T00:27:17.318Z,28.23
2018-12-22T00:29:45.612Z,29.77
2018-12-22T00:32:14.003Z,22.77
2018-12-22T00:34:44.811Z,31.70
2018-12-22T00:37:13.156Z,28.43
2018-12-22T00:39:41.461Z,32.93
2018-12-22T00:42:10.065Z,28.57
2018-12-22T00:44:38.361Z,39.23
2018-12-22T00:47:06.651Z,34.33
2018-12-22T00:49:35.294Z,29.40
2018-12-22T00:52:03.670Z,30.37
2018-12-22T00:54:31.955Z,34.70
2018-12-22T00:57:00.540Z,38.60
2018-12-22T00:59:28.831Z,32.97
2018-12-22T01:01:57.129Z,28.50
2018-12-22T01:04:25.770Z,27.87
2018-12-22T01:06:54.152Z,31.00
2018-12-22T01:09:22.517Z,30.77
2018-12-22T01:11:51.206Z,26.90
2018-12-22T01:14:19.595Z,32.53
2018-12-22T01:16:47.900Z,35.23
2018-12-22T01:19:16.451Z,38.37
2018-12-22T01:21:44.724Z,39.67
2018-12-22T01:24:13.042Z,33.40
2018-12-22T01:26:41.950Z,24.33
2018-12-22T01:29:10.806Z,24.00
2018-12-22T01:31:39.119Z,28.17
2018-12-22T01:34:07.543Z,28.83
2018-12-22T01:36:35.906Z,28.63
2018-12-22T01:39:06.117Z,25.23
2018-12-22T01:41:34.883Z,22.97
2018-12-22T01:44:03.247Z,22.20
2018-12-22T01:46:31.527Z,21.67
2018-12-22T01:49:00.064Z,27.17
2018-12-22T01:51:28.383Z,22.23
2018-12-22T01:53:56.673Z,30.40
2018-12-22T01:56:25.769Z,26.50
2018-12-22T01:58:54.029Z,26.73
2018-12-22T02:01:22.338Z,26.87
2018-12-22T02:03:50.747Z,23.33
2018-12-22T02:06:19.049Z,26.53
2018-12-22T02:08:47.321Z,27.30
2018-12-22T02:11:15.775Z,21.40
2018-12-22T02:13:44.103Z,13.03
2018-12-22T02:16:12.394Z,16.23
2018-12-22T02:18:40.866Z,10.60
2018-12-22T02:21:09.126Z,9.83
2018-12-22T02:23:37.505Z,9.53
2018-12-22T02:26:06.056Z,11.70
2018-12-22T02:28:34.340Z,10.93
2018-12-22T02:31:02.917Z,12.43
2018-12-22T02:33:31.689Z,16.40
2018-12-22T02:36:00.009Z,14.00
2018-12-22T02:38:28.310Z,14.13
2018-12-22T02:40:56.938Z,16.30
2018-12-22T02:43:25.374Z,20.30
2018-12-22T02:45:53.645Z,16.17
2018-12-22T02:48:22.012Z,19.07
2018-12-22T02:50:50.338Z,24.27
2018-12-22T02:53:18.650Z,17.40
2018-12-22T02:55:47.614Z,24.57
2018-12-22T02:58:15.910Z,23.07
2018-12-22T03:00:44.185Z,20.37
2018-12-22T03:03:12.645Z,27.57
2018-12-22T03:05:41.050Z,21.50
2018-12-22T03:08:09.339Z,24.90
2018-12-22T03:10:38.712Z,22.23
2018-12-22T03:13:07.109Z,24.10
2018-12-22T03:15:35.390Z,24.37
2018-12-22T03:18:03.945Z,26.70
2018-12-22T03:20:32.221Z,28.77
2018-12-22T03:23:00.571Z,17.90
2018-12-22T03:25:29.175Z,18.33
2018-12-22T03:27:57.438Z,21.80
2018-12-22T03:30:25.717Z,20.30
2018-12-22T03:32:54.375Z,20.00
2018-12-22T03:35:22.846Z,14.70
2018-12-22T03:37:51.189Z,9.53
2018-12-22T03:40:19.874Z,14.03
2018-12-22T03:42:48.168Z,13.00
2018-12-22T03:45:16.458Z,12.27
2018-12-22T03:47:44.906Z,14.67
2018-12-22T03:50:13.194Z,13.57
2018-12-22T03:52:41.494Z,8.47
2018-12-22T03:55:10.142Z,10.60
2018-12-22T03:57:38.420Z,13.00
2018-12-22T04:00:12.196Z,10.57
2018-12-22T04:02:40.729Z,11.17
2018-12-22T04:05:09.151Z,13.70
2018-12-22T04:07:37.516Z,10.63
2018-12-22T04:10:06.656Z,8.43
2018-12-22T04:12:34.958Z,12.00
2018-12-22T04:15:03.368Z,9.37
2018-12-22T04:17:32.008Z,10.07
2018-12-22T04:20:00.344Z,15.03
2018-12-22T04:22:28.635Z,13.97
2018-12-22T04:24:57.221Z,10.13
2018-12-22T04:27:25.517Z,13.60
2018-12-22T04:29:53.840Z,10.40
2018-12-22T04:32:22.257Z,13.57
2018-12-22T04:34:50.563Z,11.07
2018-12-22T04:37:18.951Z,7.67
2018-12-22T04:39:47.510Z,14.07
2018-12-22T04:42:15.880Z,14.87
2018-12-22T04:44:44.394Z,14.40
2018-12-22T04:47:12.804Z,9.73
2018-12-22T04:49:41.084Z,10.73
2018-12-22T04:52:09.343Z,9.97
2018-12-22T04:54:37.986Z,7.13
2018-12-22T04:57:06.261Z,14.87
2018-12-22T04:59:42.796Z,5.03
2018-12-22T05:02:05.261Z,10.40
2018-12-22T05:04:33.517Z,10.47
2018-12-22T05:07:02.093Z,6.47
2018-12-22T05:09:30.759Z,9.60
2018-12-22T05:11:59.029Z,10.97
2018-12-22T05:14:27.321Z,6.40
2018-12-22T05:16:55.946Z,6.70
2018-12-22T05:19:24.234Z,4.50
2018-12-22T05:21:52.549Z,12.67
2018-12-22T05:24:21.036Z,5.00
2018-12-22T05:26:49.299Z,7.50
2018-12-22T05:29:17.591Z,5.33
2018-12-22T05:31:46.229Z,10.17
2018-12-22T05:34:14.509Z,6.87
2018-12-22T05:36:43.808Z,11.93
2018-12-22T05:39:12.266Z,8.90
2018-12-22T05:41:40.645Z,8.07
2018-12-22T05:44:08.917Z,10.50
2018-12-22T05:46:37.509Z,7.13
2018-12-22T05:49:08.751Z,9.33
2018-12-22T05:51:37.055Z,10.13
2018-12-22T05:54:05.625Z,12.40
2018-12-22T05:56:33.903Z,7.33
2018-12-22T05:59:02.202Z,11.47
2018-12-22T06:01:30.639Z,7.27
2018-12-22T06:03:58.914Z,7.20
2018-12-22T06:06:27.195Z,9.17
2018-12-22T06:08:55.882Z,6.47
2018-12-22T06:11:24.146Z,9.13
2018-12-22T06:13:52.544Z,8.50
2018-12-22T06:16:21.128Z,10.07
2018-12-22T06:18:49.422Z,9.67
2018-12-22T06:21:17.710Z,9.00
2018-12-22T06:23:46.164Z,7.27
2018-12-22T06:26:15.256Z,10.40
2018-12-22T06:28:45.050Z,12.93
2018-12-22T06:31:13.500Z,4.40
2018-12-22T06:33:41.786Z,13.07
2018-12-22T06:36:10.251Z,7.37
2018-12-22T06:38:40.434Z,11.27
2018-12-22T06:43:43.830Z,11.87
2018-12-22T06:46:12.372Z,9.13
2018-12-22T06:48:40.659Z,10.03
2018-12-22T06:51:09.079Z,8.53
2018-12-22T06:53:37.356Z,7.47
2018-12-22T06:56:05.623Z,10.77
2018-12-22T06:58:34.159Z,17.43
2018-12-22T07:01:02.679Z,8.87
2018-12-22T07:03:30.982Z,11.37
2018-12-22T07:05:59.577Z,6.70
2018-12-22T07:08:28.065Z,10.13
2018-12-22T07:10:56.385Z,7.87
2018-12-22T07:13:25.043Z,9.40
2018-12-22T07:15:53.331Z,7.47
2018-12-22T07:18:21.602Z,24.40
2018-12-22T07:20:50.220Z,12.27
2018-12-22T07:23:18.481Z,9.43
2018-12-22T07:25:47.076Z,10.10
2018-12-22T07:28:15.454Z,10.27
2018-12-22T07:30:43.842Z,6.93
2018-12-22T07:33:12.139Z,10.47
2018-12-22T07:35:40.779Z,15.13
2018-12-22T07:38:10.400Z,10.13
2018-12-22T07:40:38.683Z,9.63
2018-12-22T07:43:07.228Z,8.33
2018-12-22T07:45:35.500Z,11.57
2018-12-22T07:48:03.855Z,9.20
2018-12-22T07:50:32.427Z,7.77
2018-12-22T07:53:00.746Z,11.47
2018-12-22T07:55:29.017Z,13.13
2018-12-22T07:57:59.471Z,10.00
2018-12-22T08:00:34.867Z,10.43
2018-12-22T08:03:00.430Z,12.23
2018-12-22T08:05:28.856Z,9.20
2018-12-22T08:07:57.150Z,10.17
2018-12-22T08:10:25.777Z,10.33
2018-12-22T08:12:54.059Z,8.63
2018-12-22T08:15:23.029Z,11.13
2018-12-22T08:17:51.366Z,12.63
2018-12-22T08:20:19.793Z,17.23
2018-12-22T08:22:48.185Z,11.97
2018-12-22T08:25:17.292Z,10.00
2018-12-22T08:27:45.666Z,14.03
2018-12-22T08:30:13.977Z,14.60
2018-12-22T08:32:42.624Z,11.73
2018-12-22T08:35:10.927Z,8.37
2018-12-22T08:37:39.210Z,13.50
2018-12-22T08:40:09.613Z,13.43
2018-12-22T08:42:37.896Z,8.63
2018-12-22T08:45:11.632Z,8.60
2018-12-22T08:47:49.036Z,7.90
2018-12-22T08:50:24.004Z,8.10
2018-12-22T08:52:55.772Z,13.20
2018-12-22T08:55:24.323Z,8.47
2018-12-22T08:57:52.716Z,11.43
2018-12-22T09:00:21.445Z,7.93
2018-12-22T09:02:49.829Z,8.37
2018-12-22T09:05:18.081Z,9.57
2018-12-22T09:07:46.380Z,8.27
2018-12-22T09:10:14.832Z,10.00
2018-12-22T09:12:43.172Z,8.40
2018-12-22T09:15:11.432Z,11.83
2018-12-22T09:17:40.013Z,7.27
2018-12-22T09:20:09.914Z,10.50
2018-12-22T09:22:38.274Z,11.43
2018-12-22T09:25:07.873Z,15.93
2018-12-22T09:27:36.207Z,9.13
2018-12-22T09:30:06.978Z,7.87
2018-12-22T09:32:35.430Z,9.60
2018-12-22T09:35:03.830Z,12.87
2018-12-22T09:37:32.181Z,12.23
2018-12-22T09:40:01.222Z,11.70
2018-12-22T09:42:29.499Z,15.57
2018-12-22T09:44:57.776Z,15.37
2018-12-22T09:47:26.320Z,13.63
2018-12-22T09:49:54.594Z,10.83
2018-12-22T09:52:22.905Z,12.60
2018-12-22T09:54:52.251Z,14.57
2018-12-22T09:57:20.738Z,11.43
2018-12-22T09:59:49.014Z,13.97
2018-12-22T10:02:17.450Z,15.30
2018-12-22T10:04:45.732Z,11.20
2018-12-22T10:07:14.378Z,9.73
2018-12-22T10:09:42.705Z,8.30
2018-12-22T10:12:11.291Z,18.67
2018-12-22T10:14:39.551Z,9.80
2018-12-22T10:17:07.822Z,11.63
2018-12-22T10:19:36.121Z,13.97
2018-12-22T10:22:04.508Z,11.83
2018-12-22T10:24:33.031Z,12.53
2018-12-22T10:27:01.300Z,8.77
2018-12-22T10:29:29.576Z,10.87
2018-12-22T10:31:58.239Z,10.87
2018-12-22T10:34:26.571Z,12.17
2018-12-22T10:36:54.849Z,7.13
2018-12-22T10:39:23.501Z,12.07
2018-12-22T10:41:51.788Z,8.47
2018-12-22T10:44:20.059Z,11.37
2018-12-22T10:46:48.633Z,10.57
2018-12-22T10:49:16.907Z,12.00
2018-12-22T10:51:45.179Z,6.23
2018-12-22T10:54:13.615Z,9.93
2018-12-22T10:56:41.897Z,10.60
2018-12-22T10:59:10.163Z,11.03
2018-12-22T11:01:38.561Z,16.27
2018-12-22T11:04:06.825Z,8.40
2018-12-22T11:06:35.095Z,15.43
2018-12-22T11:09:05.386Z,9.53
2018-12-22T11:11:33.771Z,12.17
2018-12-22T11:14:02.128Z,12.27
2018-12-22T11:16:30.527Z,10.90
2018-12-22T11:18:58.823Z,15.47
2018-12-22T11:21:27.217Z,9.77
2018-12-22T11:23:55.763Z,11.57
2018-12-22T11:28:58.891Z,11.70
2018-12-22T11:31:34.844Z,7.10
2018-12-22T11:33:57.579Z,12.37
2018-12-22T11:36:26.160Z,10.53
2018-12-22T11:38:54.452Z,11.50
2018-12-22T11:41:22.739Z,12.77
2018-12-22T11:43:51.199Z,12.67
2018-12-22T11:46:19.529Z,9.27
2018-12-22T11:48:55.554Z,13.07
2018-12-22T11:51:25.288Z,10.43
2018-12-22T11:53:53.658Z,11.73
2018-12-22T11:56:22.200Z,11.90
2018-12-22T11:58:50.507Z,9.17
2018-12-22T12:01:18.778Z,11.73
2018-12-22T12:03:47.232Z,9.43
2018-12-22T12:06:15.486Z,10.50
2018-12-22T12:08:43.744Z,9.87
2018-12-22T12:11:12.082Z,12.17
2018-12-22T12:13:40.568Z,11.30
2018-12-22T12:16:25.203Z,12.83
2018-12-22T12:19:08.619Z,10.23
2018-12-22T12:21:37.530Z,7.87
2018-12-22T12:24:05.816Z,15.23
2018-12-22T12:26:34.096Z,12.17
2018-12-22T12:29:02.681Z,12.30
2018-12-22T12:31:31.198Z,14.07
2018-12-22T12:33:59.915Z,10.63
2018-12-22T12:36:28.447Z,11.67
2018-12-22T12:38:58.291Z,7.40
2018-12-22T12:41:27.133Z,12.33
2018-12-22T12:43:55.569Z,10.13
2018-12-22T12:46:28.384Z,11.10
2018-12-22T12:48:57.167Z,10.13
2018-12-22T12:51:36.969Z,11.97
2018-12-22T12:54:06.055Z,10.47
2018-12-22T12:56:38.631Z,10.00
2018-12-22T12:59:07.173Z,14.63
2018-12-22T13:01:35.561Z,9.47
2018-12-22T13:04:03.969Z,14.00
2018-12-22T13:06:32.350Z,13.67
2018-12-22T13:09:00.639Z,9.97
2018-12-22T13:11:28.898Z,11.67
2018-12-22T13:14:02.051Z,9.50
2018-12-22T13:16:30.983Z,9.50
2018-12-22T13:18:59.264Z,10.93
2018-12-22T13:21:28.134Z,12.77
2018-12-22T13:23:56.424Z,12.53
2018-12-22T13:26:24.679Z,6.87
2018-12-22T13:28:53.258Z,9.40
2018-12-22T13:31:24.082Z,18.53
2018-12-22T13:33:52.360Z,14.63
2018-12-22T13:36:20.793Z,12.10
2018-12-22T13:38:58.754Z,11.37
2018-12-22T13:41:27.170Z,12.37
2018-12-22T13:43:55.618Z,9.70
2018-12-22T13:46:23.926Z,13.17
2018-12-22T13:48:52.480Z,12.07
2018-12-22T13:51:20.961Z,17.60
2018-12-22T13:53:49.343Z,15.03
2018-12-22T13:56:17.794Z,12.30
2018-12-22T13:58:46.369Z,8.67
2018-12-22T14:01:17.528Z,15.37
2018-12-22T14:03:46.213Z,13.37
2018-12-22T14:06:27.819Z,11.27
2018-12-22T14:08:56.267Z,14.93
2018-12-22T14:11:24.579Z,15.83
2018-12-22T14:13:53.998Z,9.97
2018-12-22T14:16:29.106Z,12.53
2018-12-22T14:19:01.985Z,14.10
2018-12-22T14:21:30.754Z,12.33
2018-12-22T14:24:12.513Z,12.30
2018-12-22T14:26:41.270Z,12.60
2018-12-22T14:29:09.679Z,15.00
2018-12-22T14:31:37.991Z,15.20
2018-12-22T14:34:10.833Z,10.97
2018-12-22T14:36:39.178Z,12.13
2018-12-22T14:39:08.517Z,12.67
2018-12-22T14:41:37.051Z,14.37
2018-12-22T14:44:05.498Z,14.60
2018-12-22T14:46:33.998Z,19.47
2018-12-22T14:49:02.477Z,11.80
2018-12-22T14:51:31.396Z,10.83
2018-12-22T14:53:59.833Z,13.83
2018-12-22T14:56:36.750Z,10.77
2018-12-22T14:59:05.626Z,9.97
2018-12-22T15:01:33.925Z,11.83
2018-12-22T15:04:02.571Z,13.97
2018-12-22T15:06:30.859Z,9.07
2018-12-22T15:08:59.329Z,21.33
2018-12-22T15:11:27.811Z,17.90
2018-12-22T15:13:56.100Z,16.43
2018-12-22T15:16:24.458Z,14.87
2018-12-22T15:18:53.108Z,16.33
2018-12-22T15:21:21.421Z,16.90
2018-12-22T15:23:50.190Z,14.30
2018-12-22T15:26:18.696Z,15.50
2018-12-22T15:28:47.489Z,21.53
2018-12-22T15:31:15.936Z,12.10
2018-12-22T15:33:44.559Z,15.67
2018-12-22T15:36:12.945Z,15.87
2018-12-22T15:38:41.225Z,21.03
2018-12-22T15:41:09.845Z,18.83
2018-12-22T15:43:38.233Z,17.23
2018-12-22T15:46:06.528Z,15.90
2018-12-22T15:48:35.226Z,17.43
2018-12-22T15:51:03.642Z,20.97
2018-12-22T15:53:33.280Z,18.60
2018-12-22T15:56:01.722Z,14.93
2018-12-22T15:58:29.991Z,14.90
2018-12-22T16:00:58.290Z,12.77
2018-12-22T16:03:26.973Z,10.63
2018-12-22T16:05:55.282Z,16.80
2018-12-22T16:08:23.553Z,13.10
2018-12-22T16:10:51.994Z,14.83
2018-12-22T16:13:20.759Z,14.47
2018-12-22T16:15:49.178Z,17.90
2018-12-22T16:18:17.824Z,13.60
2018-12-22T16:20:46.092Z,15.33
2018-12-22T16:23:14.396Z,17.10
2018-12-22T16:25:43.114Z,23.83
2018-12-22T16:28:15.426Z,15.77
2018-12-22T16:30:48.011Z,14.60
2018-12-22T16:33:16.278Z,15.57
2018-12-22T16:35:44.613Z,10.60
2018-12-22T16:38:13.239Z,17.97
2018-12-22T16:40:41.508Z,15.50
2018-12-22T16:43:12.243Z,14.43
2018-12-22T16:45:43.804Z,11.13
2018-12-22T16:48:12.082Z,15.27
2018-12-22T16:50:41.581Z,13.80
2018-12-22T16:53:10.075Z,14.30
2018-12-22T16:55:38.370Z,11.33
2018-12-22T16:58:10.527Z,12.23
2018-12-22T17:00:44.924Z,15.90
2018-12-22T17:03:13.840Z,12.43
2018-12-22T17:05:42.131Z,10.90
2018-12-22T17:08:11.225Z,12.07
2018-12-22T17:10:43.545Z,16.10
2018-12-22T17:13:14.319Z,12.53
2018-12-22T17:15:48.468Z,15.13
2018-12-22T17:18:17.263Z,15.50
2018-12-22T17:20:46.192Z,17.73
2018-12-22T17:23:25.449Z,12.43
2018-12-22T17:25:57.154Z,14.90
2018-12-22T17:28:28.545Z,13.20
2018-12-22T17:30:55.988Z,16.97
2018-12-22T17:33:24.292Z,14.13
2018-12-22T17:35:52.742Z,14.07
2018-12-22T17:38:21.236Z,12.03
2018-12-22T17:40:49.893Z,13.33
2018-12-22T17:43:18.213Z,13.27
2018-12-22T17:45:46.886Z,11.03
2018-12-22T17:48:15.173Z,15.60
2018-12-22T17:50:43.470Z,19.70
2018-12-22T17:53:12.114Z,9.87
2018-12-22T17:55:40.485Z,13.77
2018-12-22T17:58:08.826Z,15.53
2018-12-22T18:00:37.366Z,18.30
2018-12-22T18:03:07.767Z,14.43
2018-12-22T18:05:37.134Z,16.87
2018-12-22T18:08:05.872Z,16.13
2018-12-22T18:10:34.160Z,12.73
2018-12-22T18:13:02.581Z,16.17
2018-12-22T18:15:31.113Z,14.37
2018-12-22T18:18:00.022Z,15.67
2018-12-22T18:20:28.317Z,16.87
2018-12-22T18:22:57.019Z,16.83
2018-12-22T18:25:25.345Z,15.07
2018-12-22T18:27:54.315Z,19.90
2018-12-22T18:30:23.094Z,12.23
2018-12-22T18:32:51.437Z,13.37
2018-12-22T18:35:19.869Z,17.40
2018-12-22T18:37:48.487Z,19.43
2018-12-22T18:40:19.185Z,20.13
2018-12-22T18:42:47.711Z,15.33
2018-12-22T18:45:16.312Z,17.37
2018-12-22T18:47:44.754Z,12.37
2018-12-22T18:50:16.080Z,15.20
2018-12-22T18:52:44.825Z,17.37
2018-12-22T18:55:13.201Z,11.37
2018-12-22T18:57:41.525Z,14.00
2018-12-22T19:00:16.243Z,15.47
2018-12-22T19:02:44.704Z,11.20
2018-12-22T19:05:13.703Z,14.20
2018-12-22T19:07:42.407Z,15.43
2018-12-22T19:10:17.990Z,12.27
2018-12-22T19:12:46.557Z,9.97
2018-12-22T19:15:14.854Z,11.10
2018-12-22T19:17:43.154Z,13.83
2018-12-22T19:20:18.948Z,10.87
2018-12-22T19:22:47.248Z,14.07
2018-12-22T19:25:15.578Z,11.90
2018-12-22T19:27:44.190Z,6.90
2018-12-22T19:30:12.615Z,8.73
2018-12-22T19:32:40.925Z,11.10
2018-12-22T19:35:09.431Z,12.27
2018-12-22T19:37:37.777Z,10.33
2018-12-22T19:40:06.277Z,11.17
2018-12-22T19:42:34.936Z,12.90
2018-12-22T19:45:03.459Z,12.77
2018-12-22T19:47:31.770Z,10.90
2018-12-22T19:50:00.326Z,8.17
2018-12-22T19:52:28.850Z,11.67
2018-12-22T19:57:34.367Z,14.70
2018-12-22T20:00:02.726Z,11.00
2018-12-22T20:02:31.031Z,17.63
2018-12-22T20:05:00.016Z,10.27
2018-12-22T20:07:28.426Z,14.00
2018-12-22T20:09:56.758Z,10.87
2018-12-22T20:12:25.305Z,57.50
2018-12-22T20:14:53.634Z,12.57
2018-12-22T20:17:21.946Z,11.20
2018-12-22T20:19:50.488Z,9.90
2018-12-22T20:22:18.934Z,14.30
2018-12-22T20:24:47.230Z,13.90
2018-12-22T20:27:15.942Z,15.40
2018-12-22T20:30:14.932Z,14.33
2018-12-22T20:32:43.252Z,9.73
2018-12-22T20:35:11.575Z,13.20
2018-12-22T20:37:40.362Z,9.43
2018-12-22T20:40:08.900Z,9.20
2018-12-22T20:42:37.226Z,12.70
2018-12-22T20:45:06.237Z,9.67
2018-12-22T20:47:34.544Z,14.40
2018-12-22T20:50:03.093Z,18.73
2018-12-22T20:52:31.730Z,23.50
2018-12-22T20:55:00.162Z,11.43
2018-12-22T20:57:28.746Z,11.10
2018-12-22T20:59:57.559Z,10.40
2018-12-22T21:02:26.075Z,10.43
2018-12-22T21:04:54.657Z,12.23
2018-12-22T21:07:23.214Z,9.77
2018-12-22T21:09:52.224Z,13.60
2018-12-22T21:12:20.872Z,9.83
2018-12-22T21:14:49.867Z,7.93
2018-12-22T21:17:18.309Z,10.93
2018-12-22T21:19:46.657Z,10.60
2018-12-22T21:22:15.325Z,14.50
2018-12-22T21:24:43.603Z,17.00
2018-12-22T21:27:11.951Z,11.10
2018-12-22T21:29:41.131Z,15.27
2018-12-22T21:32:09.457Z,9.30
2018-12-22T21:34:37.746Z,13.87
2018-12-22T21:37:06.573Z,10.80
2018-12-22T21:39:34.870Z,11.03
2018-12-22T21:42:03.161Z,13.03
2018-12-22T21:44:31.864Z,12.67
2018-12-22T21:47:00.119Z,12.53
2018-12-22T21:49:28.394Z,12.23
2018-12-22T21:51:56.830Z,7.13
2018-12-22T21:54:25.103Z,10.43
2018-12-22T21:56:53.378Z,10.87
2018-12-22T21:59:21.811Z,12.73
2018-12-22T22:01:50.140Z,10.33
2018-12-22T22:04:18.400Z,13.27
2018-12-22T22:06:47.206Z,13.67
2018-12-22T22:09:15.468Z,17.63
2018-12-22T22:11:43.728Z,16.03
2018-12-22T22:14:12.716Z,10.97
2018-12-22T22:16:40.973Z,11.13
2018-12-22T22:19:09.259Z,14.73
2018-12-22T22:21:37.655Z,12.43
2018-12-22T22:24:05.937Z,11.73
2018-12-22T22:26:34.203Z,13.53
2018-12-22T22:29:04.286Z,13.53
2018-12-22T22:31:32.574Z,10.20
2018-12-22T22:34:00.843Z,9.63
2018-12-22T22:36:29.580Z,16.37
2018-12-22T22:38:57.871Z,9.23
2018-12-22T22:41:26.146Z,18.27
2018-12-22T22:43:54.569Z,8.27
2018-12-22T22:46:23.097Z,10.63
2018-12-22T22:48:51.396Z,8.97
2018-12-22T22:51:19.813Z,12.67
2018-12-22T22:53:48.078Z,8.73
2018-12-22T22:56:16.334Z,8.90
2018-12-22T22:58:44.956Z,9.00
2018-12-22T23:01:13.470Z,12.63
2018-12-22T23:03:41.775Z,10.93
2018-12-22T23:06:10.234Z,13.03
2018-12-22T23:08:38.653Z,13.50
2018-12-22T23:11:06.922Z,12.33
2018-12-22T23:13:35.485Z,11.77
2018-12-22T23:16:03.844Z,9.17
2018-12-22T23:18:32.132Z,12.50
2018-12-22T23:21:00.713Z,7.47
2018-12-22T23:23:28.999Z,9.23
2018-12-22T23:25:57.399Z,13.90
2018-12-22T23:28:25.951Z,10.53
2018-12-22T23:30:54.429Z,9.83
2018-12-22T23:33:22.813Z,13.17
2018-12-22T23:35:51.454Z,12.53
2018-12-22T23:38:19.735Z,11.73
2018-12-22T23:40:47.991Z,10.37
2018-12-22T23:43:16.515Z,11.10
2018-12-22T23:45:44.797Z,19.20
2018-12-22T23:48:13.080Z,10.93
2018-12-22T23:50:41.501Z,12.70
2018-12-22T23:53:09.779Z,14.50
2018-12-22T23:55:38.219Z,13.87
2018-12-22T23:58:06.627Z,11.30
